sensor_id;sensor_type;location;lat;lon;timestamp;pressure;altitude;pressure_sealevel;temperature;humidity
68230;BME280;55048;52.220;5.160;2022-11-03T00:02:20;101013.41;;;11.17;69.12
68230;BME280;55048;52.220;5.160;2022-11-03T00:04:45;101237.25;;;12.55;69.09
68230;BME280;55048;52.220;5.160;2022-11-03T00:07:11;101197.78;;;12.40;69.04
68230;BME280;55048;52.220;5.160;2022-11-03T00:09:36;101207.34;;;12.53;69.13
68230;BME280;55048;52.220;5.160;2022-11-03T00:12:02;101175.06;;;12.38;68.93
68230;BME280;55048;52.220;5.160;2022-11-03T00:14:27;101148.50;;;12.14;69.05
68230;BME280;55048;52.220;5.160;2022-11-03T00:16:53;101162.44;;;12.33;69.22
68230;BME280;55048;52.220;5.160;2022-11-03T00:19:19;101048.38;;;11.61;69.19
68230;BME280;55048;52.220;5.160;2022-11-03T00:21:45;101123.53;;;12.04;68.82
68230;BME280;55048;52.220;5.160;2022-11-03T00:24:11;101158.22;;;12.20;69.60
68230;BME280;55048;52.220;5.160;2022-11-03T00:26:37;101080.03;;;11.86;69.06
68230;BME280;55048;52.220;5.160;2022-11-03T00:29:07;101182.44;;;12.47;69.25
68230;BME280;55048;52.220;5.160;2022-11-03T00:31:35;101178.06;;;12.41;69.43
68230;BME280;55048;52.220;5.160;2022-11-03T00:34:01;101183.97;;;12.43;69.32
68230;BME280;55048;52.220;5.160;2022-11-03T00:36:34;101181.78;;;12.40;69.22
68230;BME280;55048;52.220;5.160;2022-11-03T00:39:00;101131.44;;;12.15;69.10
68230;BME280;55048;52.220;5.160;2022-11-03T00:41:26;101157.34;;;12.32;69.38
68230;BME280;55048;52.220;5.160;2022-11-03T00:43:52;101177.16;;;12.36;69.86
68230;BME280;55048;52.220;5.160;2022-11-03T00:46:19;101186.00;;;12.24;69.91
68230;BME280;55048;52.220;5.160;2022-11-03T00:48:45;101115.91;;;11.95;69.69
68230;BME280;55048;52.220;5.160;2022-11-03T00:53:48;101077.41;;;11.63;69.85
68230;BME280;55048;52.220;5.160;2022-11-03T00:56:25;101168.75;;;12.27;69.71
68230;BME280;55048;52.220;5.160;2022-11-03T00:58:52;101103.88;;;11.81;69.82
68230;BME280;55048;52.220;5.160;2022-11-03T01:01:21;101074.38;;;11.71;69.80
68230;BME280;55048;52.220;5.160;2022-11-03T01:03:50;101159.94;;;12.27;69.84
68230;BME280;55048;52.220;5.160;2022-11-03T01:06:36;101131.84;;;12.07;69.73
68230;BME280;55048;52.220;5.160;2022-11-03T01:09:28;101109.97;;;11.93;69.95
68230;BME280;55048;52.220;5.160;2022-11-03T01:12:11;101132.97;;;12.11;70.10
68230;BME280;55048;52.220;5.160;2022-11-03T01:17:13;101149.16;;;12.21;70.16
68230;BME280;55048;52.220;5.160;2022-11-03T01:19:39;101136.06;;;12.20;69.88
68230;BME280;55048;52.220;5.160;2022-11-03T01:22:05;101109.06;;;11.99;70.22
68230;BME280;55048;52.220;5.160;2022-11-03T01:24:31;101074.09;;;11.84;70.25
68230;BME280;55048;52.220;5.160;2022-11-03T01:26:56;101108.69;;;12.08;70.05
68230;BME280;55048;52.220;5.160;2022-11-03T01:29:22;101053.28;;;11.69;70.24
68230;BME280;55048;52.220;5.160;2022-11-03T01:31:47;101133.56;;;12.30;69.99
68230;BME280;55048;52.220;5.160;2022-11-03T01:34:15;101072.59;;;11.88;69.79
68230;BME280;55048;52.220;5.160;2022-11-03T01:36:41;101125.91;;;12.34;69.92
68230;BME280;55048;52.220;5.160;2022-11-03T01:39:14;101075.47;;;11.98;70.08
68230;BME280;55048;52.220;5.160;2022-11-03T01:41:42;101060.06;;;11.89;70.28
68230;BME280;55048;52.220;5.160;2022-11-03T01:49:16;101056.59;;;11.88;70.29
68230;BME280;55048;52.220;5.160;2022-11-03T01:51:47;101042.25;;;11.78;70.73
68230;BME280;55048;52.220;5.160;2022-11-03T01:54:18;101031.25;;;11.74;70.63
68230;BME280;55048;52.220;5.160;2022-11-03T01:56:46;101108.34;;;12.21;71.15
68230;BME280;55048;52.220;5.160;2022-11-03T01:59:14;101082.00;;;12.08;70.99
68230;BME280;55048;52.220;5.160;2022-11-03T02:01:41;100855.13;;;10.51;71.18
68230;BME280;55048;52.220;5.160;2022-11-03T02:04:10;100848.63;;;10.59;71.39
68230;BME280;55048;52.220;5.160;2022-11-03T02:06:37;101013.25;;;11.64;71.96
68230;BME280;55048;52.220;5.160;2022-11-03T02:09:05;101068.34;;;12.04;71.76
68230;BME280;55048;52.220;5.160;2022-11-03T02:11:32;100823.22;;;10.51;72.04
68230;BME280;55048;52.220;5.160;2022-11-03T02:14:16;101032.16;;;11.80;72.12
68230;BME280;55048;52.220;5.160;2022-11-03T02:16:44;101063.81;;;12.05;71.96
68230;BME280;55048;52.220;5.160;2022-11-03T02:19:49;101071.91;;;12.10;72.55
68230;BME280;55048;52.220;5.160;2022-11-03T02:25:36;101059.72;;;12.14;72.26
68230;BME280;55048;52.220;5.160;2022-11-03T02:28:03;101057.38;;;12.17;72.00
68230;BME280;55048;52.220;5.160;2022-11-03T02:33:29;101060.59;;;12.19;72.06
68230;BME280;55048;52.220;5.160;2022-11-03T02:36:01;101028.91;;;12.06;73.11
68230;BME280;55048;52.220;5.160;2022-11-03T02:38:29;100919.41;;;11.29;72.32
68230;BME280;55048;52.220;5.160;2022-11-03T02:40:59;101014.13;;;11.70;72.35
68230;BME280;55048;52.220;5.160;2022-11-03T02:43:27;101039.59;;;12.23;72.55
68230;BME280;55048;52.220;5.160;2022-11-03T02:45:54;101047.69;;;12.28;72.26
68230;BME280;55048;52.220;5.160;2022-11-03T02:48:20;101022.88;;;12.28;72.63
68230;BME280;55048;52.220;5.160;2022-11-03T02:50:46;100949.09;;;11.83;72.81
68230;BME280;55048;52.220;5.160;2022-11-03T02:53:14;100789.50;;;10.68;73.03
68230;BME280;55048;52.220;5.160;2022-11-03T02:55:54;100991.59;;;12.23;72.97
68230;BME280;55048;52.220;5.160;2022-11-03T03:03:49;100903.31;;;11.52;73.27
68230;BME280;55048;52.220;5.160;2022-11-03T03:06:33;100969.53;;;12.11;73.45
68230;BME280;55048;52.220;5.160;2022-11-03T03:09:08;100983.59;;;12.23;73.50
68230;BME280;55048;52.220;5.160;2022-11-03T03:11:40;100994.97;;;12.35;73.06
68230;BME280;55048;52.220;5.160;2022-11-03T03:14:14;100984.88;;;12.37;73.29
68230;BME280;55048;52.220;5.160;2022-11-03T03:17:02;100981.56;;;12.30;73.69
68230;BME280;55048;52.220;5.160;2022-11-03T03:19:48;100982.94;;;12.33;73.82
68230;BME280;55048;52.220;5.160;2022-11-03T03:22:30;100964.63;;;12.36;73.83
68230;BME280;55048;52.220;5.160;2022-11-03T03:25:15;100949.34;;;12.32;73.46
68230;BME280;55048;52.220;5.160;2022-11-03T03:27:47;100939.72;;;12.31;73.59
68230;BME280;55048;52.220;5.160;2022-11-03T03:30:14;100958.53;;;12.41;73.70
68230;BME280;55048;52.220;5.160;2022-11-03T03:32:45;100965.47;;;12.42;73.74
68230;BME280;55048;52.220;5.160;2022-11-03T03:35:19;100939.22;;;12.34;73.83
68230;BME280;55048;52.220;5.160;2022-11-03T03:37:49;100930.34;;;12.28;74.48
68230;BME280;55048;52.220;5.160;2022-11-03T03:40:20;100949.75;;;12.40;74.71
68230;BME280;55048;52.220;5.160;2022-11-03T03:42:48;100930.22;;;12.40;74.20
68230;BME280;55048;52.220;5.160;2022-11-03T03:45:15;100918.47;;;12.36;74.43
68230;BME280;55048;52.220;5.160;2022-11-03T03:47:42;100934.34;;;12.47;74.35
68230;BME280;55048;52.220;5.160;2022-11-03T03:50:08;100919.88;;;12.43;74.44
68230;BME280;55048;52.220;5.160;2022-11-03T03:52:34;100918.34;;;12.47;74.21
68230;BME280;55048;52.220;5.160;2022-11-03T03:55:00;100925.16;;;12.38;74.87
68230;BME280;55048;52.220;5.160;2022-11-03T03:57:26;100911.09;;;12.43;74.55
68230;BME280;55048;52.220;5.160;2022-11-03T03:59:54;100916.75;;;12.46;74.91
68230;BME280;55048;52.220;5.160;2022-11-03T04:02:20;100909.97;;;12.39;74.73
68230;BME280;55048;52.220;5.160;2022-11-03T04:04:45;100911.09;;;12.43;75.00
68230;BME280;55048;52.220;5.160;2022-11-03T04:07:11;100906.63;;;12.48;74.74
68230;BME280;55048;52.220;5.160;2022-11-03T04:09:55;100909.84;;;12.50;75.02
68230;BME280;55048;52.220;5.160;2022-11-03T04:12:20;100918.16;;;12.54;75.37
68230;BME280;55048;52.220;5.160;2022-11-03T04:15:04;100904.59;;;12.56;74.89
68230;BME280;55048;52.220;5.160;2022-11-03T04:17:56;100894.34;;;12.47;75.15
68230;BME280;55048;52.220;5.160;2022-11-03T04:20:40;100895.25;;;12.58;74.88
68230;BME280;55048;52.220;5.160;2022-11-03T04:23:24;100880.19;;;12.47;74.69
68230;BME280;55048;52.220;5.160;2022-11-03T04:25:52;100879.13;;;12.48;75.37
68230;BME280;55048;52.220;5.160;2022-11-03T04:28:18;100878.66;;;12.51;75.24
68230;BME280;55048;52.220;5.160;2022-11-03T04:30:43;100894.03;;;12.66;75.36
68230;BME280;55048;52.220;5.160;2022-11-03T04:33:21;100890.31;;;12.67;75.18
68230;BME280;55048;52.220;5.160;2022-11-03T04:35:47;100885.53;;;12.69;74.90
68230;BME280;55048;52.220;5.160;2022-11-03T04:40:43;100883.78;;;12.58;75.60
68230;BME280;55048;52.220;5.160;2022-11-03T04:43:10;100869.09;;;12.55;75.46
68230;BME280;55048;52.220;5.160;2022-11-03T04:45:36;100882.72;;;12.59;75.35
68230;BME280;55048;52.220;5.160;2022-11-03T04:48:11;100880.16;;;12.64;75.38
68230;BME280;55048;52.220;5.160;2022-11-03T04:50:38;100877.38;;;12.59;74.89
68230;BME280;55048;52.220;5.160;2022-11-03T04:53:08;100872.88;;;12.59;75.46
68230;BME280;55048;52.220;5.160;2022-11-03T04:55:38;100873.44;;;12.61;75.57
68230;BME280;55048;52.220;5.160;2022-11-03T04:58:12;100872.38;;;12.62;75.59
68230;BME280;55048;52.220;5.160;2022-11-03T05:00:39;100852.03;;;12.56;75.68
68230;BME280;55048;52.220;5.160;2022-11-03T05:03:11;100861.66;;;12.57;75.76
68230;BME280;55048;52.220;5.160;2022-11-03T05:05:38;100864.94;;;12.64;75.59
68230;BME280;55048;52.220;5.160;2022-11-03T05:08:07;100858.81;;;12.64;75.80
68230;BME280;55048;52.220;5.160;2022-11-03T05:10:33;100860.09;;;12.61;76.12
68230;BME280;55048;52.220;5.160;2022-11-03T05:12:59;100849.38;;;12.56;75.92
68230;BME280;55048;52.220;5.160;2022-11-03T05:15:32;100853.47;;;12.64;75.70
68230;BME280;55048;52.220;5.160;2022-11-03T05:17:59;100848.13;;;12.64;75.77
68230;BME280;55048;52.220;5.160;2022-11-03T05:20:32;100844.09;;;12.61;75.90
68230;BME280;55048;52.220;5.160;2022-11-03T05:22:59;100836.03;;;12.56;76.34
68230;BME280;55048;52.220;5.160;2022-11-03T05:27:56;100840.41;;;12.67;76.31
68230;BME280;55048;52.220;5.160;2022-11-03T05:30:21;100816.28;;;12.57;76.23
68230;BME280;55048;52.220;5.160;2022-11-03T05:32:47;100810.47;;;12.60;76.23
68230;BME280;55048;52.220;5.160;2022-11-03T05:35:21;100805.63;;;12.57;76.16
68230;BME280;55048;52.220;5.160;2022-11-03T05:37:48;100799.78;;;12.60;76.46
68230;BME280;55048;52.220;5.160;2022-11-03T05:40:23;100811.31;;;12.66;76.84
68230;BME280;55048;52.220;5.160;2022-11-03T05:42:52;100808.03;;;12.59;77.25
68230;BME280;55048;52.220;5.160;2022-11-03T05:45:22;100810.03;;;12.68;76.49
68230;BME280;55048;52.220;5.160;2022-11-03T05:47:51;100798.28;;;12.69;76.63
68230;BME280;55048;52.220;5.160;2022-11-03T05:50:20;100805.03;;;12.77;76.49
68230;BME280;55048;52.220;5.160;2022-11-03T05:52:48;100809.50;;;12.71;77.00
68230;BME280;55048;52.220;5.160;2022-11-03T05:55:27;100765.56;;;12.52;77.13
68230;BME280;55048;52.220;5.160;2022-11-03T05:57:56;100789.00;;;12.77;76.74
68230;BME280;55048;52.220;5.160;2022-11-03T06:00:26;100794.13;;;12.79;76.60
68230;BME280;55048;52.220;5.160;2022-11-03T06:02:53;100776.94;;;12.69;76.87
68230;BME280;55048;52.220;5.160;2022-11-03T06:05:21;100773.16;;;12.65;77.24
68230;BME280;55048;52.220;5.160;2022-11-03T06:07:48;100800.44;;;12.72;77.57
68230;BME280;55048;52.220;5.160;2022-11-03T06:10:26;100780.78;;;12.79;77.11
68230;BME280;55048;52.220;5.160;2022-11-03T06:12:56;100767.88;;;12.70;77.66
68230;BME280;55048;52.220;5.160;2022-11-03T06:17:52;100771.44;;;12.81;77.07
68230;BME280;55048;52.220;5.160;2022-11-03T06:20:20;100773.66;;;12.89;76.83
68230;BME280;55048;52.220;5.160;2022-11-03T06:22:46;100756.22;;;12.82;77.04
68230;BME280;55048;52.220;5.160;2022-11-03T06:25:26;100770.19;;;12.89;77.10
68230;BME280;55048;52.220;5.160;2022-11-03T06:27:53;100756.75;;;12.79;77.53
68230;BME280;55048;52.220;5.160;2022-11-03T06:30:30;100755.47;;;12.86;77.31
68230;BME280;55048;52.220;5.160;2022-11-03T06:33:06;100767.81;;;12.92;77.56
68230;BME280;55048;52.220;5.160;2022-11-03T06:35:37;100734.84;;;12.76;77.83
68230;BME280;55048;52.220;5.160;2022-11-03T06:38:10;100750.75;;;12.93;77.41
68230;BME280;55048;52.220;5.160;2022-11-03T06:40:39;100738.41;;;12.87;77.47
68230;BME280;55048;52.220;5.160;2022-11-03T06:43:25;100738.91;;;12.84;77.52
68230;BME280;55048;52.220;5.160;2022-11-03T06:46:01;100745.13;;;12.95;77.67
68230;BME280;55048;52.220;5.160;2022-11-03T06:48:33;100722.06;;;12.79;77.34
68230;BME280;55048;52.220;5.160;2022-11-03T06:50:59;100723.00;;;12.67;77.94
68230;BME280;55048;52.220;5.160;2022-11-03T06:53:28;100740.59;;;12.95;77.81
68230;BME280;55048;52.220;5.160;2022-11-03T06:55:55;100730.44;;;12.92;77.74
68230;BME280;55048;52.220;5.160;2022-11-03T06:58:31;100739.56;;;12.96;78.18
68230;BME280;55048;52.220;5.160;2022-11-03T07:01:02;100739.84;;;13.00;77.81
68230;BME280;55048;52.220;5.160;2022-11-03T07:03:33;100719.44;;;12.84;78.44
68230;BME280;55048;52.220;5.160;2022-11-03T07:06:12;100732.50;;;12.85;78.39
68230;BME280;55048;52.220;5.160;2022-11-03T07:08:41;100737.47;;;13.03;77.85
68230;BME280;55048;52.220;5.160;2022-11-03T07:11:15;100733.75;;;13.05;77.54
68230;BME280;55048;52.220;5.160;2022-11-03T07:13:41;100686.72;;;12.66;77.93
68230;BME280;55048;52.220;5.160;2022-11-03T07:16:18;100706.44;;;12.92;77.96
68230;BME280;55048;52.220;5.160;2022-11-03T07:18:45;100721.50;;;13.09;78.01
68230;BME280;55048;52.220;5.160;2022-11-03T07:24:03;100710.81;;;13.09;77.63
68230;BME280;55048;52.220;5.160;2022-11-03T07:26:31;100726.44;;;13.22;77.58
68230;BME280;55048;52.220;5.160;2022-11-03T07:28:59;100732.88;;;13.26;77.67
68230;BME280;55048;52.220;5.160;2022-11-03T07:31:25;100736.38;;;13.32;77.47
68230;BME280;55048;52.220;5.160;2022-11-03T07:33:55;100721.41;;;13.31;77.46
68230;BME280;55048;52.220;5.160;2022-11-03T07:36:22;100722.19;;;13.26;77.92
68230;BME280;55048;52.220;5.160;2022-11-03T07:38:50;100721.41;;;13.31;77.57
68230;BME280;55048;52.220;5.160;2022-11-03T07:41:21;100726.53;;;13.37;77.33
68230;BME280;55048;52.220;5.160;2022-11-03T07:43:55;100717.97;;;13.35;77.59
68230;BME280;55048;52.220;5.160;2022-11-03T07:46:23;100695.38;;;13.16;77.76
68230;BME280;55048;52.220;5.160;2022-11-03T07:48:58;100727.63;;;13.41;77.45
68230;BME280;55048;52.220;5.160;2022-11-03T07:51:38;100733.53;;;13.43;77.54
68230;BME280;55048;52.220;5.160;2022-11-03T07:57:00;100722.28;;;13.41;78.00
68230;BME280;55048;52.220;5.160;2022-11-03T07:59:35;100704.13;;;13.38;77.70
68230;BME280;55048;52.220;5.160;2022-11-03T08:04:41;100716.50;;;13.55;77.70
68230;BME280;55048;52.220;5.160;2022-11-03T08:07:06;100707.41;;;13.56;77.53
68230;BME280;55048;52.220;5.160;2022-11-03T08:09:32;100713.03;;;13.59;77.47
68230;BME280;55048;52.220;5.160;2022-11-03T08:11:58;100695.13;;;13.60;77.75
68230;BME280;55048;52.220;5.160;2022-11-03T08:14:24;100704.19;;;13.53;78.22
68230;BME280;55048;52.220;5.160;2022-11-03T08:16:50;100699.16;;;13.62;77.73
68230;BME280;55048;52.220;5.160;2022-11-03T08:19:16;100671.25;;;13.43;77.99
68230;BME280;55048;52.220;5.160;2022-11-03T08:21:42;100675.63;;;13.54;77.96
68230;BME280;55048;52.220;5.160;2022-11-03T08:24:07;100691.72;;;13.69;77.71
68230;BME280;55048;52.220;5.160;2022-11-03T08:26:33;100695.75;;;13.72;77.82
68230;BME280;55048;52.220;5.160;2022-11-03T08:29:03;100685.06;;;13.72;77.74
68230;BME280;55048;52.220;5.160;2022-11-03T08:31:29;100676.75;;;13.73;77.79
68230;BME280;55048;52.220;5.160;2022-11-03T08:33:56;100649.72;;;13.65;77.70
68230;BME280;55048;52.220;5.160;2022-11-03T08:36:22;100647.66;;;13.77;77.58
68230;BME280;55048;52.220;5.160;2022-11-03T08:38:48;100630.50;;;13.68;77.55
68230;BME280;55048;52.220;5.160;2022-11-03T08:41:13;100655.69;;;13.87;77.60
68230;BME280;55048;52.220;5.160;2022-11-03T08:43:39;100643.41;;;13.86;77.52
68230;BME280;55048;52.220;5.160;2022-11-03T08:46:05;100625.19;;;13.78;77.73
68230;BME280;55048;52.220;5.160;2022-11-03T08:48:30;100615.59;;;13.82;77.19
68230;BME280;55048;52.220;5.160;2022-11-03T08:50:56;100625.25;;;13.98;77.33
68230;BME280;55048;52.220;5.160;2022-11-03T08:53:26;100619.66;;;14.00;77.13
68230;BME280;55048;52.220;5.160;2022-11-03T08:55:52;100623.13;;;13.95;77.17
68230;BME280;55048;52.220;5.160;2022-11-03T08:58:20;100624.47;;;14.08;76.81
68230;BME280;55048;52.220;5.160;2022-11-03T09:00:47;100618.31;;;14.08;76.71
68230;BME280;55048;52.220;5.160;2022-11-03T09:03:13;100616.19;;;14.10;76.65
68230;BME280;55048;52.220;5.160;2022-11-03T09:05:40;100609.78;;;14.16;76.60
68230;BME280;55048;52.220;5.160;2022-11-03T09:08:07;100606.88;;;14.22;76.38
68230;BME280;55048;52.220;5.160;2022-11-03T09:10:51;100597.47;;;14.25;76.24
68230;BME280;55048;52.220;5.160;2022-11-03T09:13:18;100590.00;;;14.27;75.93
68230;BME280;55048;52.220;5.160;2022-11-03T09:15:48;100503.59;;;13.91;76.07
68230;BME280;55048;52.220;5.160;2022-11-03T09:18:18;100577.44;;;14.38;75.92
68230;BME280;55048;52.220;5.160;2022-11-03T09:20:48;100563.53;;;14.46;75.51
68230;BME280;55048;52.220;5.160;2022-11-03T09:23:15;100563.81;;;14.49;75.36
68230;BME280;55048;52.220;5.160;2022-11-03T09:25:42;100558.72;;;14.48;75.21
68230;BME280;55048;52.220;5.160;2022-11-03T09:28:08;100551.78;;;14.52;75.08
68230;BME280;55048;52.220;5.160;2022-11-03T09:30:35;100557.13;;;14.52;75.12
68230;BME280;55048;52.220;5.160;2022-11-03T09:33:00;100527.41;;;14.48;74.76
68230;BME280;55048;52.220;5.160;2022-11-03T09:35:27;100525.28;;;14.50;74.73
68230;BME280;55048;52.220;5.160;2022-11-03T09:37:57;100525.28;;;14.50;74.60
68230;BME280;55048;52.220;5.160;2022-11-03T09:40:23;100522.06;;;14.53;74.19
68230;BME280;55048;52.220;5.160;2022-11-03T09:42:52;100470.19;;;14.24;74.02
68230;BME280;55048;52.220;5.160;2022-11-03T09:45:19;100508.94;;;14.57;74.03
68230;BME280;55048;52.220;5.160;2022-11-03T09:47:52;100507.63;;;14.60;73.88
68230;BME280;55048;52.220;5.160;2022-11-03T09:50:19;100503.56;;;14.62;73.71
68230;BME280;55048;52.220;5.160;2022-11-03T09:52:47;100240.41;;;12.96;73.16
68230;BME280;55048;52.220;5.160;2022-11-03T09:55:23;100493.13;;;14.71;73.33
68230;BME280;55048;52.220;5.160;2022-11-03T09:57:56;100494.75;;;14.67;72.92
68230;BME280;55048;52.220;5.160;2022-11-03T10:00:27;100483.72;;;14.73;72.99
68230;BME280;55048;52.220;5.160;2022-11-03T10:02:55;100477.34;;;14.69;72.90
68230;BME280;55048;52.220;5.160;2022-11-03T10:05:25;100208.09;;;12.72;72.54
68230;BME280;55048;52.220;5.160;2022-11-03T10:08:07;100473.56;;;14.80;72.38
68230;BME280;55048;52.220;5.160;2022-11-03T10:10:40;100465.00;;;14.78;71.97
68230;BME280;55048;52.220;5.160;2022-11-03T10:13:16;100463.91;;;14.85;72.22
68230;BME280;55048;52.220;5.160;2022-11-03T10:15:47;100146.97;;;12.86;71.82
68230;BME280;55048;52.220;5.160;2022-11-03T10:18:28;100300.97;;;13.88;71.66
68230;BME280;55048;52.220;5.160;2022-11-03T10:21:26;100452.91;;;14.86;71.57
68230;BME280;55048;52.220;5.160;2022-11-03T10:23:54;100126.75;;;12.60;71.28
68230;BME280;55048;52.220;5.160;2022-11-03T10:26:21;100438.19;;;14.89;71.34
68230;BME280;55048;52.220;5.160;2022-11-03T10:29:06;100441.94;;;14.88;71.34
68230;BME280;55048;52.220;5.160;2022-11-03T10:31:43;100431.75;;;14.90;71.15
68230;BME280;55048;52.220;5.160;2022-11-03T10:34:23;100428.56;;;14.88;71.04
68230;BME280;55048;52.220;5.160;2022-11-03T10:39:41;100425.56;;;14.94;70.59
68230;BME280;55048;52.220;5.160;2022-11-03T10:42:24;100422.59;;;14.96;70.87
68230;BME280;55048;52.220;5.160;2022-11-03T10:45:15;100419.91;;;15.01;70.43
68230;BME280;55048;52.220;5.160;2022-11-03T10:47:59;100354.44;;;14.83;70.53
68230;BME280;55048;52.220;5.160;2022-11-03T10:50:40;100394.91;;;15.21;70.07
68230;BME280;55048;52.220;5.160;2022-11-03T10:53:19;100391.44;;;15.20;69.82
68230;BME280;55048;52.220;5.160;2022-11-03T10:55:46;100388.47;;;15.22;69.50
68230;BME280;55048;52.220;5.160;2022-11-03T10:58:14;100301.72;;;14.73;69.27
68230;BME280;55048;52.220;5.160;2022-11-03T11:00:44;100369.75;;;15.17;69.10
68230;BME280;55048;52.220;5.160;2022-11-03T11:03:11;100020.41;;;13.13;69.16
68230;BME280;55048;52.220;5.160;2022-11-03T11:05:45;100368.03;;;15.31;69.02
68230;BME280;55048;52.220;5.160;2022-11-03T11:08:13;100108.63;;;13.67;69.03
68230;BME280;55048;52.220;5.160;2022-11-03T11:10:47;100351.41;;;15.34;69.34
68230;BME280;55048;52.220;5.160;2022-11-03T11:16:00;100343.34;;;15.39;68.83
68230;BME280;55048;52.220;5.160;2022-11-03T11:20:56;100343.28;;;15.44;68.62
68230;BME280;55048;52.220;5.160;2022-11-03T11:28:39;100338.63;;;15.55;68.37
68230;BME280;55048;52.220;5.160;2022-11-03T11:31:29;100333.84;;;15.52;68.13
68230;BME280;55048;52.220;5.160;2022-11-03T11:42:18;100322.22;;;15.67;67.54
68230;BME280;55048;52.220;5.160;2022-11-03T11:44:50;100324.28;;;15.75;67.28
68230;BME280;55048;52.220;5.160;2022-11-03T11:47:24;100308.19;;;15.75;66.74
68230;BME280;55048;52.220;5.160;2022-11-03T11:57:51;100245.88;;;15.59;66.36
68230;BME280;55048;52.220;5.160;2022-11-03T12:00:20;100250.41;;;15.64;66.33
68230;BME280;55048;52.220;5.160;2022-11-03T12:02:51;100273.81;;;15.82;66.09
68230;BME280;55048;52.220;5.160;2022-11-03T12:07:48;100244.75;;;15.89;65.92
68230;BME280;55048;52.220;5.160;2022-11-03T12:10:20;100252.25;;;15.92;65.74
68230;BME280;55048;52.220;5.160;2022-11-03T12:12:51;100244.44;;;15.96;64.97
68230;BME280;55048;52.220;5.160;2022-11-03T12:15:49;100235.00;;;15.98;64.91
68230;BME280;55048;52.220;5.160;2022-11-03T12:18:34;100234.06;;;16.08;64.86
68230;BME280;55048;52.220;5.160;2022-11-03T12:21:04;100207.38;;;15.98;64.50
68230;BME280;55048;52.220;5.160;2022-11-03T12:23:49;100223.13;;;16.04;64.64
68230;BME280;55048;52.220;5.160;2022-11-03T12:29:18;100217.88;;;16.18;64.30
68230;BME280;55048;52.220;5.160;2022-11-03T12:31:46;100208.19;;;16.17;64.61
68230;BME280;55048;52.220;5.160;2022-11-03T12:34:12;100208.72;;;16.19;64.58
68230;BME280;55048;52.220;5.160;2022-11-03T12:36:39;100204.16;;;16.20;64.34
68230;BME280;55048;52.220;5.160;2022-11-03T12:39:13;100198.06;;;16.14;64.27
68230;BME280;55048;52.220;5.160;2022-11-03T12:41:40;100198.50;;;16.21;63.99
68230;BME280;55048;52.220;5.160;2022-11-03T12:44:07;100180.00;;;16.20;64.31
68230;BME280;55048;52.220;5.160;2022-11-03T12:46:33;100178.41;;;16.19;64.43
68230;BME280;55048;52.220;5.160;2022-11-03T12:48:59;100172.09;;;16.10;64.30
68230;BME280;55048;52.220;5.160;2022-11-03T12:51:25;100159.41;;;16.15;64.18
68230;BME280;55048;52.220;5.160;2022-11-03T12:53:52;100168.56;;;16.14;64.52
68230;BME280;55048;52.220;5.160;2022-11-03T12:56:18;100122.28;;;15.85;64.27
68230;BME280;55048;52.220;5.160;2022-11-03T12:58:44;100156.75;;;16.15;64.22
68230;BME280;55048;52.220;5.160;2022-11-03T13:01:10;100153.69;;;16.22;64.38
68230;BME280;55048;52.220;5.160;2022-11-03T13:03:37;100001.66;;;15.42;63.84
68230;BME280;55048;52.220;5.160;2022-11-03T13:06:19;99993.41;;;15.38;63.69
68230;BME280;55048;52.220;5.160;2022-11-03T13:08:48;100133.22;;;16.45;63.56
68230;BME280;55048;52.220;5.160;2022-11-03T13:11:17;100121.72;;;16.58;63.35
68230;BME280;55048;52.220;5.160;2022-11-03T13:14:06;100107.94;;;16.65;63.16
68230;BME280;55048;52.220;5.160;2022-11-03T13:16:33;100106.91;;;16.79;63.09
68230;BME280;55048;52.220;5.160;2022-11-03T13:19:04;99638.88;;;13.69;62.42
68230;BME280;55048;52.220;5.160;2022-11-03T13:21:35;100128.59;;;16.83;62.33
68230;BME280;55048;52.220;5.160;2022-11-03T13:24:03;100107.72;;;16.80;62.01
68230;BME280;55048;52.220;5.160;2022-11-03T13:26:30;100096.81;;;16.71;62.36
68230;BME280;55048;52.220;5.160;2022-11-03T13:28:56;100091.63;;;16.61;62.17
68230;BME280;55048;52.220;5.160;2022-11-03T13:31:23;100039.16;;;16.36;62.33
68230;BME280;55048;52.220;5.160;2022-11-03T13:33:49;100078.22;;;16.61;62.45
68230;BME280;55048;52.220;5.160;2022-11-03T13:36:17;100050.91;;;16.40;62.40
68230;BME280;55048;52.220;5.160;2022-11-03T13:38:43;100064.69;;;16.66;62.37
68230;BME280;55048;52.220;5.160;2022-11-03T13:41:09;100047.50;;;16.67;62.64
68230;BME280;55048;52.220;5.160;2022-11-03T13:43:36;100051.84;;;16.63;62.94
68230;BME280;55048;52.220;5.160;2022-11-03T13:46:05;100019.59;;;16.49;62.72
68230;BME280;55048;52.220;5.160;2022-11-03T13:48:31;100028.00;;;16.62;63.00
68230;BME280;55048;52.220;5.160;2022-11-03T13:50:58;100031.47;;;16.62;62.54
68230;BME280;55048;52.220;5.160;2022-11-03T13:53:24;100027.19;;;16.61;62.53
68230;BME280;55048;52.220;5.160;2022-11-03T13:55:51;99995.72;;;16.34;62.83
68230;BME280;55048;52.220;5.160;2022-11-03T13:58:17;100025.97;;;16.53;62.92
68230;BME280;55048;52.220;5.160;2022-11-03T14:00:43;100039.19;;;16.50;63.00
68230;BME280;55048;52.220;5.160;2022-11-03T14:03:10;100037.47;;;16.40;62.72
68230;BME280;55048;52.220;5.160;2022-11-03T14:05:36;100035.97;;;16.34;62.98
68230;BME280;55048;52.220;5.160;2022-11-03T14:08:08;100013.50;;;16.30;62.83
68230;BME280;55048;52.220;5.160;2022-11-03T14:10:37;100009.44;;;16.32;62.79
68230;BME280;55048;52.220;5.160;2022-11-03T14:13:04;100001.69;;;16.31;63.04
68230;BME280;55048;52.220;5.160;2022-11-03T14:15:30;99996.31;;;16.31;62.92
68230;BME280;55048;52.220;5.160;2022-11-03T14:17:57;99938.81;;;15.91;63.03
68230;BME280;55048;52.220;5.160;2022-11-03T14:20:23;99972.75;;;16.14;62.85